sensor_id;sensor_type;location;lat;lon;timestamp;temperature;humidity
4693;DHT22;11710;48.024;16.296;2023-04-01T05:25:40;12.70;88.70
4693;DHT22;11710;48.024;16.296;2023-04-01T05:28:07;15.20;85.60
4693;DHT22;11710;48.024;16.296;2023-04-01T05:30:35;17.50;82.00
4693;DHT22;11710;48.024;16.296;2023-04-01T05:33:02;19.90;77.50
4693;DHT22;11710;48.024;16.296;2023-04-01T05:35:29;21.30;73.60
4693;DHT22;11710;48.024;16.296;2023-04-01T05:37:56;22.10;71.20
4693;DHT22;11710;48.024;16.296;2023-04-01T05:40:24;22.60;69.90
4693;DHT22;11710;48.024;16.296;2023-04-01T05:42:52;23.90;68.20
4693;DHT22;11710;48.024;16.296;2023-04-01T05:45:19;25.30;65.80
4693;DHT22;11710;48.024;16.296;2023-04-01T05:47:47;25.80;64.00
4693;DHT22;11710;48.024;16.296;2023-04-01T05:50:14;26.70;63.30
4693;DHT22;11710;48.024;16.296;2023-04-01T05:52:42;27.70;60.70
4693;DHT22;11710;48.024;16.296;2023-04-01T05:55:10;28.70;59.00
4693;DHT22;11710;48.024;16.296;2023-04-01T05:57:37;29.50;57.00
4693;DHT22;11710;48.024;16.296;2023-04-01T06:00:08;29.20;56.30
4693;DHT22;11710;48.024;16.296;2023-04-01T06:02:35;29.40;55.20
4693;DHT22;11710;48.024;16.296;2023-04-01T06:05:13;28.20;55.50
4693;DHT22;11710;48.024;16.296;2023-04-01T06:07:40;28.20;55.60
4693;DHT22;11710;48.024;16.296;2023-04-01T06:10:13;27.40;56.00
4693;DHT22;11710;48.024;16.296;2023-04-01T06:12:52;25.60;57.40
4693;DHT22;11710;48.024;16.296;2023-04-01T06:15:35;25.10;59.00
4693;DHT22;11710;48.024;16.296;2023-04-01T06:24:11;24.40;59.10
4693;DHT22;11710;48.024;16.296;2023-04-01T06:26:48;23.90;60.70
4693;DHT22;11710;48.024;16.296;2023-04-01T06:29:43;23.60;60.30
4693;DHT22;11710;48.024;16.296;2023-04-01T06:32:42;23.50;61.00
4693;DHT22;11710;48.024;16.296;2023-04-01T06:38:49;22.80;61.20
4693;DHT22;11710;48.024;16.296;2023-04-01T06:41:50;21.40;62.70
4693;DHT22;11710;48.024;16.296;2023-04-01T06:44:25;20.30;64.20
4693;DHT22;11710;48.024;16.296;2023-04-01T06:46:58;20.00;65.70
4693;DHT22;11710;48.024;16.296;2023-04-01T06:49:37;20.60;65.40
4693;DHT22;11710;48.024;16.296;2023-04-01T06:52:16;20.60;65.20
4693;DHT22;11710;48.024;16.296;2023-04-01T06:54:49;20.30;65.00
4693;DHT22;11710;48.024;16.296;2023-04-01T06:57:24;19.60;65.80
4693;DHT22;11710;48.024;16.296;2023-04-01T06:59:57;19.00;66.50
4693;DHT22;11710;48.024;16.296;2023-04-01T07:02:32;18.50;67.20
4693;DHT22;11710;48.024;16.296;2023-04-01T07:05:04;18.00;68.40
4693;DHT22;11710;48.024;16.296;2023-04-01T07:07:36;17.80;68.90
4693;DHT22;11710;48.024;16.296;2023-04-01T07:10:10;17.40;69.20
4693;DHT22;11710;48.024;16.296;2023-04-01T07:12:43;16.90;70.40
4693;DHT22;11710;48.024;16.296;2023-04-01T07:15:18;16.70;70.80
4693;DHT22;11710;48.024;16.296;2023-04-01T07:20:22;15.90;71.50
4693;DHT22;11710;48.024;16.296;2023-04-01T07:22:51;15.50;72.40
4693;DHT22;11710;48.024;16.296;2023-04-01T07:25:24;15.20;73.30
4693;DHT22;11710;48.024;16.296;2023-04-01T07:27:53;14.90;74.10
4693;DHT22;11710;48.024;16.296;2023-04-01T07:30:25;14.80;75.00
4693;DHT22;11710;48.024;16.296;2023-04-01T07:32:59;14.70;75.30
4693;DHT22;11710;48.024;16.296;2023-04-01T07:35:37;14.90;75.80
4693;DHT22;11710;48.024;16.296;2023-04-01T07:38:17;15.00;75.00
4693;DHT22;11710;48.024;16.296;2023-04-01T07:40:57;15.00;74.90
4693;DHT22;11710;48.024;16.296;2023-04-01T07:43:37;15.10;74.90
4693;DHT22;11710;48.024;16.296;2023-04-01T07:46:17;15.40;74.70
4693;DHT22;11710;48.024;16.296;2023-04-01T07:48:53;15.80;74.30
4693;DHT22;11710;48.024;16.296;2023-04-01T07:51:28;16.00;73.90
4693;DHT22;11710;48.024;16.296;2023-04-01T07:54:01;16.00;73.00
4693;DHT22;11710;48.024;16.296;2023-04-01T07:56:35;16.20;73.20
4693;DHT22;11710;48.024;16.296;2023-04-01T07:59:11;16.20;72.50
4693;DHT22;11710;48.024;16.296;2023-04-01T08:01:48;16.10;72.70
4693;DHT22;11710;48.024;16.296;2023-04-01T08:04:41;16.10;72.80
4693;DHT22;11710;48.024;16.296;2023-04-01T08:07:15;16.10;72.40
4693;DHT22;11710;48.024;16.296;2023-04-01T08:09:48;16.00;72.30
4693;DHT22;11710;48.024;16.296;2023-04-01T08:12:29;15.80;72.30
4693;DHT22;11710;48.024;16.296;2023-04-01T08:15:08;15.70;72.60
4693;DHT22;11710;48.024;16.296;2023-04-01T08:17:44;15.80;73.00
4693;DHT22;11710;48.024;16.296;2023-04-01T08:20:25;16.00;73.20
4693;DHT22;11710;48.024;16.296;2023-04-01T08:22:59;16.20;73.00
4693;DHT22;11710;48.024;16.296;2023-04-01T08:25:29;16.30;72.40
4693;DHT22;11710;48.024;16.296;2023-04-01T08:28:00;16.50;72.00
4693;DHT22;11710;48.024;16.296;2023-04-01T08:30:36;16.60;71.70
4693;DHT22;11710;48.024;16.296;2023-04-01T08:33:14;16.70;71.40
4693;DHT22;11710;48.024;16.296;2023-04-01T08:35:47;16.90;71.70
4693;DHT22;11710;48.024;16.296;2023-04-01T08:38:19;17.20;71.50
4693;DHT22;11710;48.024;16.296;2023-04-01T08:40:58;17.40;71.30
4693;DHT22;11710;48.024;16.296;2023-04-01T08:47:13;18.00;70.60
4693;DHT22;11710;48.024;16.296;2023-04-01T08:50:08;18.40;69.10
4693;DHT22;11710;48.024;16.296;2023-04-01T08:52:51;18.40;68.40
4693;DHT22;11710;48.024;16.296;2023-04-01T08:55:38;18.60;68.90
4693;DHT22;11710;48.024;16.296;2023-04-01T09:01:21;18.90;68.30
4693;DHT22;11710;48.024;16.296;2023-04-01T09:04:19;18.90;67.70
4693;DHT22;11710;48.024;16.296;2023-04-01T09:06:59;18.50;67.50
4693;DHT22;11710;48.024;16.296;2023-04-01T09:12:44;17.60;69.60
4693;DHT22;11710;48.024;16.296;2023-04-01T09:15:40;17.80;70.00
4693;DHT22;11710;48.024;16.296;2023-04-01T09:18:20;17.70;69.20
4693;DHT22;11710;48.024;16.296;2023-04-01T09:26:59;17.80;69.20
4693;DHT22;11710;48.024;16.296;2023-04-01T09:32:47;18.30;68.20
4693;DHT22;11710;48.024;16.296;2023-04-01T09:35:23;18.70;67.20
4693;DHT22;11710;48.024;16.296;2023-04-01T09:38:03;19.40;66.20
4693;DHT22;11710;48.024;16.296;2023-04-01T09:40:41;20.30;65.80
4693;DHT22;11710;48.024;16.296;2023-04-01T09:43:25;21.30;64.10
4693;DHT22;11710;48.024;16.296;2023-04-01T09:46:15;21.60;63.30
4693;DHT22;11710;48.024;16.296;2023-04-01T09:55:01;25.40;57.50
4693;DHT22;11710;48.024;16.296;2023-04-01T09:57:41;24.40;57.90
4693;DHT22;11710;48.024;16.296;2023-04-01T10:00:27;23.00;58.10
4693;DHT22;11710;48.024;16.296;2023-04-01T10:03:37;21.40;59.30
4693;DHT22;11710;48.024;16.296;2023-04-01T10:09:33;19.20;62.80
4693;DHT22;11710;48.024;16.296;2023-04-01T10:12:41;19.00;64.00
4693;DHT22;11710;48.024;16.296;2023-04-01T10:19:03;19.40;66.20
4693;DHT22;11710;48.024;16.296;2023-04-01T10:22:12;19.40;63.60
4693;DHT22;11710;48.024;16.296;2023-04-01T10:31:21;18.60;65.70
4693;DHT22;11710;48.024;16.296;2023-04-01T10:37:16;18.30;66.30
4693;DHT22;11710;48.024;16.296;2023-04-01T10:40:13;18.40;66.30
4693;DHT22;11710;48.024;16.296;2023-04-01T10:43:20;18.50;66.70
4693;DHT22;11710;48.024;16.296;2023-04-01T10:46:13;18.70;66.60
4693;DHT22;11710;48.024;16.296;2023-04-01T10:49:28;18.50;65.10
4693;DHT22;11710;48.024;16.296;2023-04-01T10:55:44;18.20;65.80
4693;DHT22;11710;48.024;16.296;2023-04-01T10:58:57;18.00;66.20
4693;DHT22;11710;48.024;16.296;2023-04-01T11:14:13;18.00;66.70
4693;DHT22;11710;48.024;16.296;2023-04-01T11:17:06;18.10;66.00
4693;DHT22;11710;48.024;16.296;2023-04-01T11:23:07;18.20;65.50
4693;DHT22;11710;48.024;16.296;2023-04-01T11:31:58;17.80;64.90
4693;DHT22;11710;48.024;16.296;2023-04-01T11:37:29;17.50;65.70
4693;DHT22;11710;48.024;16.296;2023-04-01T11:40:11;17.50;66.10
4693;DHT22;11710;48.024;16.296;2023-04-01T11:42:47;17.50;66.70
4693;DHT22;11710;48.024;16.296;2023-04-01T11:45:31;17.50;66.40
4693;DHT22;11710;48.024;16.296;2023-04-01T11:48:12;17.60;66.00
4693;DHT22;11710;48.024;16.296;2023-04-01T11:51:00;17.60;64.40
4693;DHT22;11710;48.024;16.296;2023-04-01T11:53:38;17.40;65.50
4693;DHT22;11710;48.024;16.296;2023-04-01T11:56:32;17.30;65.50
4693;DHT22;11710;48.024;16.296;2023-04-01T11:59:30;17.30;66.00
4693;DHT22;11710;48.024;16.296;2023-04-01T12:02:12;17.30;65.60
4693;DHT22;11710;48.024;16.296;2023-04-01T12:08:04;17.30;64.90
4693;DHT22;11710;48.024;16.296;2023-04-01T12:10:39;17.50;65.50
4693;DHT22;11710;48.024;16.296;2023-04-01T12:13:18;17.60;65.10
4693;DHT22;11710;48.024;16.296;2023-04-01T12:16:06;17.80;65.10
4693;DHT22;11710;48.024;16.296;2023-04-01T12:18:38;17.80;65.10
4693;DHT22;11710;48.024;16.296;2023-04-01T12:21:17;17.80;64.50
4693;DHT22;11710;48.024;16.296;2023-04-01T12:24:03;18.00;65.10
4693;DHT22;11710;48.024;16.296;2023-04-01T12:26:47;18.00;64.50
4693;DHT22;11710;48.024;16.296;2023-04-01T12:29:47;17.90;63.50
4693;DHT22;11710;48.024;16.296;2023-04-01T12:32:24;17.70;63.60
4693;DHT22;11710;48.024;16.296;2023-04-01T12:35:18;17.70;64.50
4693;DHT22;11710;48.024;16.296;2023-04-01T12:37:59;17.60;64.40
4693;DHT22;11710;48.024;16.296;2023-04-01T12:40:47;17.60;64.90
4693;DHT22;11710;48.024;16.296;2023-04-01T12:43:46;17.60;65.30
4693;DHT22;11710;48.024;16.296;2023-04-01T12:46:22;17.60;65.40
4693;DHT22;11710;48.024;16.296;2023-04-01T12:49:24;17.60;65.00
4693;DHT22;11710;48.024;16.296;2023-04-01T12:52:07;17.50;64.80
4693;DHT22;11710;48.024;16.296;2023-04-01T13:00:45;17.70;65.70
4693;DHT22;11710;48.024;16.296;2023-04-01T13:06:29;18.30;65.30
4693;DHT22;11710;48.024;16.296;2023-04-01T13:09:08;18.60;64.90
4693;DHT22;11710;48.024;16.296;2023-04-01T13:11:58;18.60;63.60
4693;DHT22;11710;48.024;16.296;2023-04-01T13:17:33;18.30;64.70
4693;DHT22;11710;48.024;16.296;2023-04-01T13:20:07;18.30;64.50
4693;DHT22;11710;48.024;16.296;2023-04-01T13:22:53;18.10;64.10
4693;DHT22;11710;48.024;16.296;2023-04-01T13:25:30;18.10;64.70
4693;DHT22;11710;48.024;16.296;2023-04-01T13:28:06;18.00;65.00
4693;DHT22;11710;48.024;16.296;2023-04-01T13:30:41;18.00;63.50
4693;DHT22;11710;48.024;16.296;2023-04-01T13:33:17;18.00;63.50
4693;DHT22;11710;48.024;16.296;2023-04-01T13:35:56;18.00;64.40
4693;DHT22;11710;48.024;16.296;2023-04-01T13:38:55;17.90;64.00
4693;DHT22;11710;48.024;16.296;2023-04-01T13:41:38;17.80;64.30
4693;DHT22;11710;48.024;16.296;2023-04-01T13:44:12;17.90;64.90
4693;DHT22;11710;48.024;16.296;2023-04-01T13:46:53;18.00;63.60
4693;DHT22;11710;48.024;16.296;2023-04-01T13:49:31;18.00;63.40
4693;DHT22;11710;48.024;16.296;2023-04-01T13:52:36;17.90;62.70
4693;DHT22;11710;48.024;16.296;2023-04-01T13:58:42;17.60;61.80
4693;DHT22;11710;48.024;16.296;2023-04-01T14:01:16;17.80;63.10
4693;DHT22;11710;48.024;16.296;2023-04-01T14:04:10;18.20;63.20
4693;DHT22;11710;48.024;16.296;2023-04-01T14:06:52;18.30;60.80
4693;DHT22;11710;48.024;16.296;2023-04-01T14:09:44;18.20;61.00
4693;DHT22;11710;48.024;16.296;2023-04-01T14:12:22;18.10;58.50
4693;DHT22;11710;48.024;16.296;2023-04-01T14:15:16;17.90;59.80
4693;DHT22;11710;48.024;16.296;2023-04-01T14:17:58;17.90;59.80
4693;DHT22;11710;48.024;16.296;2023-04-01T14:20:38;17.80;60.90
4693;DHT22;11710;48.024;16.296;2023-04-01T14:23:31;17.70;60.30
4693;DHT22;11710;48.024;16.296;2023-04-01T14:26:20;17.80;61.80
4693;DHT22;11710;48.024;16.296;2023-04-01T14:28:56;18.00;61.70
4693;DHT22;11710;48.024;16.296;2023-04-01T14:31:38;18.00;61.30
4693;DHT22;11710;48.024;16.296;2023-04-01T14:34:21;18.20;61.60
4693;DHT22;11710;48.024;16.296;2023-04-01T14:37:03;18.30;61.50
4693;DHT22;11710;48.024;16.296;2023-04-01T14:40:02;18.30;61.50
4693;DHT22;11710;48.024;16.296;2023-04-01T14:42:49;18.00;60.90
4693;DHT22;11710;48.024;16.296;2023-04-01T14:45:50;17.90;61.60
4693;DHT22;11710;48.024;16.296;2023-04-01T14:48:27;17.80;62.30
4693;DHT22;11710;48.024;16.296;2023-04-01T14:51:04;17.70;62.60
4693;DHT22;11710;48.024;16.296;2023-04-01T14:53:38;17.60;62.80
4693;DHT22;11710;48.024;16.296;2023-04-01T14:56:11;17.50;63.80
4693;DHT22;11710;48.024;16.296;2023-04-01T14:58:44;17.60;63.70
4693;DHT22;11710;48.024;16.296;2023-04-01T15:01:32;17.50;62.50
4693;DHT22;11710;48.024;16.296;2023-04-01T15:04:26;17.40;62.50
4693;DHT22;11710;48.024;16.296;2023-04-01T15:07:03;17.20;63.30
4693;DHT22;11710;48.024;16.296;2023-04-01T15:09:40;17.00;64.10
4693;DHT22;11710;48.024;16.296;2023-04-01T15:12:18;17.00;65.50
4693;DHT22;11710;48.024;16.296;2023-04-01T15:15:09;17.10;64.60
4693;DHT22;11710;48.024;16.296;2023-04-01T15:17:57;17.00;64.40
4693;DHT22;11710;48.024;16.296;2023-04-01T15:23:31;16.70;65.20
4693;DHT22;11710;48.024;16.296;2023-04-01T15:26:25;16.70;66.20
4693;DHT22;11710;48.024;16.296;2023-04-01T15:29:17;16.70;67.10
4693;DHT22;11710;48.024;16.296;2023-04-01T15:31:54;16.60;68.10
4693;DHT22;11710;48.024;16.296;2023-04-01T15:34:35;16.50;68.50
4693;DHT22;11710;48.024;16.296;2023-04-01T15:37:09;16.40;68.90
4693;DHT22;11710;48.024;16.296;2023-04-01T15:39:52;16.30;69.00
4693;DHT22;11710;48.024;16.296;2023-04-01T15:42:46;16.20;69.30
4693;DHT22;11710;48.024;16.296;2023-04-01T15:45:34;16.10;70.00
4693;DHT22;11710;48.024;16.296;2023-04-01T15:48:16;16.10;70.10
4693;DHT22;11710;48.024;16.296;2023-04-01T15:50:57;16.00;70.20
4693;DHT22;11710;48.024;16.296;2023-04-01T15:56:30;16.10;70.30
4693;DHT22;11710;48.024;16.296;2023-04-01T15:59:16;16.10;70.40
4693;DHT22;11710;48.024;16.296;2023-04-01T16:01:53;16.10;71.20
4693;DHT22;11710;48.024;16.296;2023-04-01T16:04:38;16.00;70.80
4693;DHT22;11710;48.024;16.296;2023-04-01T16:07:13;15.90;71.00
4693;DHT22;11710;48.024;16.296;2023-04-01T16:09:59;15.80;70.40
4693;DHT22;11710;48.024;16.296;2023-04-01T16:12:40;15.90;71.00
4693;DHT22;11710;48.024;16.296;2023-04-01T16:15:20;16.00;71.40
4693;DHT22;11710;48.024;16.296;2023-04-01T16:18:01;16.00;70.90
4693;DHT22;11710;48.024;16.296;2023-04-01T16:20:46;16.00;70.80
4693;DHT22;11710;48.024;16.296;2023-04-01T16:23:21;15.90;71.10
4693;DHT22;11710;48.024;16.296;2023-04-01T16:26:01;15.90;71.20
4693;DHT22;11710;48.024;16.296;2023-04-01T16:28:32;15.90;71.60
4693;DHT22;11710;48.024;16.296;2023-04-01T16:31:06;15.80;71.80
4693;DHT22;11710;48.024;16.296;2023-04-01T16:33:44;15.60;72.30
4693;DHT22;11710;48.024;16.296;2023-04-01T16:36:22;15.50;72.80
4693;DHT22;11710;48.024;16.296;2023-04-01T16:39:05;15.40;73.30
4693;DHT22;11710;48.024;16.296;2023-04-01T16:41:38;15.30;73.70
4693;DHT22;11710;48.024;16.296;2023-04-01T16:44:13;15.10;74.10
4693;DHT22;11710;48.024;16.296;2023-04-01T16:46:44;15.00;74.80
4693;DHT22;11710;48.024;16.296;2023-04-01T16:49:36;14.80;75.40
4693;DHT22;11710;48.024;16.296;2023-04-01T16:52:14;14.70;76.20
4693;DHT22;11710;48.024;16.296;2023-04-01T16:54:47;14.50;77.00
4693;DHT22;11710;48.024;16.296;2023-04-01T16:57:25;14.40;78.80
4693;DHT22;11710;48.024;16.296;2023-04-01T17:00:02;14.30;80.20
4693;DHT22;11710;48.024;16.296;2023-04-01T17:02:47;14.20;80.20
4693;DHT22;11710;48.024;16.296;2023-04-01T17:05:17;14.00;80.00
4693;DHT22;11710;48.024;16.296;2023-04-01T17:07:49;13.80;80.50
4693;DHT22;11710;48.024;16.296;2023-04-01T17:10:34;13.70;80.80
4693;DHT22;11710;48.024;16.296;2023-04-01T17:13:21;13.60;81.20
4693;DHT22;11710;48.024;16.296;2023-04-01T17:16:00;13.50;80.70
4693;DHT22;11710;48.024;16.296;2023-04-01T17:18:33;13.40;81.00
4693;DHT22;11710;48.024;16.296;2023-04-01T17:21:05;13.30;81.30
4693;DHT22;11710;48.024;16.296;2023-04-01T17:23:37;13.10;81.30
4693;DHT22;11710;48.024;16.296;2023-04-01T17:26:21;13.10;81.60
4693;DHT22;11710;48.024;16.296;2023-04-01T17:28:57;13.00;82.10
4693;DHT22;11710;48.024;16.296;2023-04-01T17:31:41;12.90;82.20
4693;DHT22;11710;48.024;16.296;2023-04-01T17:34:26;12.90;82.50
4693;DHT22;11710;48.024;16.296;2023-04-01T17:37:06;12.80;83.00
4693;DHT22;11710;48.024;16.296;2023-04-01T17:39:57;12.70;83.80
4693;DHT22;11710;48.024;16.296;2023-04-01T17:42:37;12.60;84.30
4693;DHT22;11710;48.024;16.296;2023-04-01T17:45:16;12.60;84.80
4693;DHT22;11710;48.024;16.296;2023-04-01T17:48:03;12.50;84.80
4693;DHT22;11710;48.024;16.296;2023-04-01T17:50:52;12.40;84.90
4693;DHT22;11710;48.024;16.296;2023-04-01T17:53:34;12.40;85.20
4693;DHT22;11710;48.024;16.296;2023-04-01T17:56:15;12.20;85.20
4693;DHT22;11710;48.024;16.296;2023-04-01T17:58:46;12.20;85.30
4693;DHT22;11710;48.024;16.296;2023-04-01T18:01:25;12.10;85.60
4693;DHT22;11710;48.024;16.296;2023-04-01T18:07:12;12.00;86.00
4693;DHT22;11710;48.024;16.296;2023-04-01T18:09:48;12.00;86.40
4693;DHT22;11710;48.024;16.296;2023-04-01T18:12:28;11.90;86.40
4693;DHT22;11710;48.024;16.296;2023-04-01T18:15:14;11.90;86.70
4693;DHT22;11710;48.024;16.296;2023-04-01T18:17:57;11.90;87.00
4693;DHT22;11710;48.024;16.296;2023-04-01T18:20:40;11.90;87.20
4693;DHT22;11710;48.024;16.296;2023-04-01T18:23:21;11.80;87.30
4693;DHT22;11710;48.024;16.296;2023-04-01T18:25:54;11.80;87.50
4693;DHT22;11710;48.024;16.296;2023-04-01T18:28:35;11.80;87.60
4693;DHT22;11710;48.024;16.296;2023-04-01T18:31:09;11.80;87.80
4693;DHT22;11710;48.024;16.296;2023-04-01T18:33:47;11.80;88.00
4693;DHT22;11710;48.024;16.296;2023-04-01T18:36:23;11.80;88.10
4693;DHT22;11710;48.024;16.296;2023-04-01T18:38:55;11.80;88.10
4693;DHT22;11710;48.024;16.296;2023-04-01T18:41:30;11.80;88.30
4693;DHT22;11710;48.024;16.296;2023-04-01T18:44:12;11.70;88.40
4693;DHT22;11710;48.024;16.296;2023-04-01T18:46:52;11.70;88.50
4693;DHT22;11710;48.024;16.296;2023-04-01T18:49:29;11.70;88.60
4693;DHT22;11710;48.024;16.296;2023-04-01T18:52:09;11.70;88.80
4693;DHT22;11710;48.024;16.296;2023-04-01T18:54:43;11.70;89.20
4693;DHT22;11710;48.024;16.296;2023-04-01T18:57:14;11.70;89.50
4693;DHT22;11710;48.024;16.296;2023-04-01T18:59:44;11.60;89.90
4693;DHT22;11710;48.024;16.296;2023-04-01T19:02:27;11.60;90.10
4693;DHT22;11710;48.024;16.296;2023-04-01T19:05:03;11.50;90.20
4693;DHT22;11710;48.024;16.296;2023-04-01T19:07:46;11.50;90.30
4693;DHT22;11710;48.024;16.296;2023-04-01T19:10:17;11.50;90.40
4693;DHT22;11710;48.024;16.296;2023-04-01T19:12:55;11.40;90.30
4693;DHT22;11710;48.024;16.296;2023-04-01T19:15:33;11.40;90.40
4693;DHT22;11710;48.024;16.296;2023-04-01T19:18:32;11.40;90.30
4693;DHT22;11710;48.024;16.296;2023-04-01T19:21:12;11.30;90.40
